sensor_id;sensor_type;location;lat;lon;timestamp;P1;durP1;ratioP1;P2;durP2;ratioP2
16642;SDS011;8435;52.184;5.406;2023-06-26T00:00:08;6.45;;;5.95;;
16642;SDS011;8435;52.184;5.406;2023-06-26T00:02:37;6.68;;;6.18;;
16642;SDS011;8435;52.184;5.406;2023-06-26T00:05:04;6.07;;;5.57;;
16642;SDS011;8435;52.184;5.406;2023-06-26T00:07:31;7.10;;;6.50;;
16642;SDS011;8435;52.184;5.406;2023-06-26T00:10:00;6.47;;;5.95;;
16642;SDS011;8435;52.184;5.406;2023-06-26T00:12:27;7.07;;;6.47;;
16642;SDS011;8435;52.184;5.406;2023-06-26T00:14:56;6.93;;;6.32;;
16642;SDS011;8435;52.184;5.406;2023-06-26T00:17:23;6.40;;;5.90;;
16642;SDS011;8435;52.184;5.406;2023-06-26T00:19:50;6.60;;;6.10;;
16642;SDS011;8435;52.184;5.406;2023-06-26T00:22:17;6.43;;;5.85;;
16642;SDS011;8435;52.184;5.406;2023-06-26T00:24:44;6.88;;;6.28;;
16642;SDS011;8435;52.184;5.406;2023-06-26T00:27:11;6.63;;;6.03;;
16642;SDS011;8435;52.184;5.406;2023-06-26T00:29:38;6.28;;;5.78;;
16642;SDS011;8435;52.184;5.406;2023-06-26T00:32:07;6.43;;;5.95;;
16642;SDS011;8435;52.184;5.406;2023-06-26T00:34:34;6.30;;;5.82;;
16642;SDS011;8435;52.184;5.406;2023-06-26T00:37:01;6.28;;;5.78;;
16642;SDS011;8435;52.184;5.406;2023-06-26T00:39:29;6.18;;;5.68;;
16642;SDS011;8435;52.184;5.406;2023-06-26T00:41:56;5.93;;;5.53;;
16642;SDS011;8435;52.184;5.406;2023-06-26T00:44:23;5.57;;;5.18;;
16642;SDS011;8435;52.184;5.406;2023-06-26T00:46:49;6.05;;;5.13;;
16642;SDS011;8435;52.184;5.406;2023-06-26T00:49:18;5.38;;;4.97;;
16642;SDS011;8435;52.184;5.406;2023-06-26T00:51:45;6.55;;;5.38;;
16642;SDS011;8435;52.184;5.406;2023-06-26T00:54:12;5.63;;;5.22;;
16642;SDS011;8435;52.184;5.406;2023-06-26T00:56:45;5.78;;;5.38;;
16642;SDS011;8435;52.184;5.406;2023-06-26T00:59:12;5.80;;;5.38;;
16642;SDS011;8435;52.184;5.406;2023-06-26T01:01:39;5.60;;;5.10;;
16642;SDS011;8435;52.184;5.406;2023-06-26T01:04:06;5.65;;;5.25;;
16642;SDS011;8435;52.184;5.406;2023-06-26T01:06:34;6.05;;;5.55;;
16642;SDS011;8435;52.184;5.406;2023-06-26T01:09:02;5.38;;;4.97;;
16642;SDS011;8435;52.184;5.406;2023-06-26T01:11:29;5.63;;;5.22;;
16642;SDS011;8435;52.184;5.406;2023-06-26T01:13:56;5.88;;;5.38;;
16642;SDS011;8435;52.184;5.406;2023-06-26T01:16:25;6.35;;;5.57;;
16642;SDS011;8435;52.184;5.406;2023-06-26T01:18:55;5.68;;;5.18;;
16642;SDS011;8435;52.184;5.406;2023-06-26T01:21:22;5.75;;;5.35;;
16642;SDS011;8435;52.184;5.406;2023-06-26T01:24:01;6.03;;;5.53;;
16642;SDS011;8435;52.184;5.406;2023-06-26T01:26:35;6.57;;;5.82;;
16642;SDS011;8435;52.184;5.406;2023-06-26T01:29:04;6.00;;;5.55;;
16642;SDS011;8435;52.184;5.406;2023-06-26T01:31:33;5.93;;;5.43;;
16642;SDS011;8435;52.184;5.406;2023-06-26T01:34:01;5.85;;;5.40;;
16642;SDS011;8435;52.184;5.406;2023-06-26T01:36:30;6.40;;;5.80;;
16642;SDS011;8435;52.184;5.406;2023-06-26T01:38:57;5.97;;;5.47;;
16642;SDS011;8435;52.184;5.406;2023-06-26T01:41:24;5.75;;;5.15;;
16642;SDS011;8435;52.184;5.406;2023-06-26T01:46:46;5.45;;;4.88;;
16642;SDS011;8435;52.184;5.406;2023-06-26T01:49:21;5.65;;;5.03;;
16642;SDS011;8435;52.184;5.406;2023-06-26T01:51:54;5.00;;;4.60;;
16642;SDS011;8435;52.184;5.406;2023-06-26T01:54:28;5.15;;;4.75;;
16642;SDS011;8435;52.184;5.406;2023-06-26T01:56:59;5.05;;;4.55;;
16642;SDS011;8435;52.184;5.406;2023-06-26T01:59:28;5.53;;;4.30;;
16642;SDS011;8435;52.184;5.406;2023-06-26T02:01:57;7.13;;;4.85;;
16642;SDS011;8435;52.184;5.406;2023-06-26T02:04:26;6.32;;;4.75;;
16642;SDS011;8435;52.184;5.406;2023-06-26T02:06:53;5.05;;;4.55;;
16642;SDS011;8435;52.184;5.406;2023-06-26T02:09:21;4.60;;;4.18;;
16642;SDS011;8435;52.184;5.406;2023-06-26T02:11:47;4.95;;;4.43;;
16642;SDS011;8435;52.184;5.406;2023-06-26T02:14:14;4.78;;;4.35;;
16642;SDS011;8435;52.184;5.406;2023-06-26T02:16:42;4.55;;;4.15;;
16642;SDS011;8435;52.184;5.406;2023-06-26T02:19:09;4.50;;;4.10;;
16642;SDS011;8435;52.184;5.406;2023-06-26T02:21:36;4.75;;;4.35;;
16642;SDS011;8435;52.184;5.406;2023-06-26T02:24:03;4.68;;;4.13;;
16642;SDS011;8435;52.184;5.406;2023-06-26T02:26:31;4.53;;;4.15;;
16642;SDS011;8435;52.184;5.406;2023-06-26T02:28:57;5.90;;;4.20;;
16642;SDS011;8435;52.184;5.406;2023-06-26T02:31:24;5.15;;;4.65;;
16642;SDS011;8435;52.184;5.406;2023-06-26T02:33:52;5.55;;;4.45;;
16642;SDS011;8435;52.184;5.406;2023-06-26T02:36:19;5.47;;;4.72;;
16642;SDS011;8435;52.184;5.406;2023-06-26T02:38:46;5.35;;;4.28;;
16642;SDS011;8435;52.184;5.406;2023-06-26T02:41:13;4.97;;;4.47;;
16642;SDS011;8435;52.184;5.406;2023-06-26T02:43:40;4.75;;;4.20;;
16642;SDS011;8435;52.184;5.406;2023-06-26T02:46:06;6.55;;;4.57;;
16642;SDS011;8435;52.184;5.406;2023-06-26T02:48:33;4.65;;;4.20;;
16642;SDS011;8435;52.184;5.406;2023-06-26T02:51:02;5.82;;;4.18;;
16642;SDS011;8435;52.184;5.406;2023-06-26T02:53:28;5.38;;;3.88;;
16642;SDS011;8435;52.184;5.406;2023-06-26T02:55:56;4.43;;;3.97;;
16642;SDS011;8435;52.184;5.406;2023-06-26T02:58:23;4.63;;;3.88;;
16642;SDS011;8435;52.184;5.406;2023-06-26T03:00:50;5.00;;;4.05;;
16642;SDS011;8435;52.184;5.406;2023-06-26T03:03:18;6.07;;;3.92;;
16642;SDS011;8435;52.184;5.406;2023-06-26T03:05:45;4.30;;;3.90;;
16642;SDS011;8435;52.184;5.406;2023-06-26T03:08:13;4.43;;;4.03;;
16642;SDS011;8435;52.184;5.406;2023-06-26T03:10:40;6.00;;;4.28;;
16642;SDS011;8435;52.184;5.406;2023-06-26T03:13:07;4.53;;;4.13;;
16642;SDS011;8435;52.184;5.406;2023-06-26T03:15:33;4.75;;;4.03;;
16642;SDS011;8435;52.184;5.406;2023-06-26T03:18:00;5.15;;;4.43;;
16642;SDS011;8435;52.184;5.406;2023-06-26T03:20:27;4.50;;;3.63;;
16642;SDS011;8435;52.184;5.406;2023-06-26T03:22:54;4.88;;;3.88;;
16642;SDS011;8435;52.184;5.406;2023-06-26T03:25:22;5.68;;;4.57;;
16642;SDS011;8435;52.184;5.406;2023-06-26T03:27:49;6.63;;;4.78;;
16642;SDS011;8435;52.184;5.406;2023-06-26T03:30:16;8.43;;;5.10;;
16642;SDS011;8435;52.184;5.406;2023-06-26T03:32:43;5.55;;;4.32;;
16642;SDS011;8435;52.184;5.406;2023-06-26T03:35:10;6.63;;;4.50;;
16642;SDS011;8435;52.184;5.406;2023-06-26T03:37:36;6.22;;;4.43;;
16642;SDS011;8435;52.184;5.406;2023-06-26T03:40:03;7.25;;;4.68;;
16642;SDS011;8435;52.184;5.406;2023-06-26T03:42:32;8.02;;;4.78;;
16642;SDS011;8435;52.184;5.406;2023-06-26T03:44:59;9.38;;;4.28;;
16642;SDS011;8435;52.184;5.406;2023-06-26T03:47:29;7.50;;;4.40;;
16642;SDS011;8435;52.184;5.406;2023-06-26T03:49:56;8.55;;;4.70;;
16642;SDS011;8435;52.184;5.406;2023-06-26T03:52:23;8.32;;;4.53;;
16642;SDS011;8435;52.184;5.406;2023-06-26T03:54:50;8.32;;;4.78;;
16642;SDS011;8435;52.184;5.406;2023-06-26T03:57:17;6.63;;;4.50;;
16642;SDS011;8435;52.184;5.406;2023-06-26T03:59:45;7.82;;;4.65;;
16642;SDS011;8435;52.184;5.406;2023-06-26T04:02:12;7.65;;;4.38;;
16642;SDS011;8435;52.184;5.406;2023-06-26T04:04:39;8.43;;;4.68;;
16642;SDS011;8435;52.184;5.406;2023-06-26T04:07:06;8.10;;;4.40;;
16642;SDS011;8435;52.184;5.406;2023-06-26T04:09:33;7.55;;;4.75;;
16642;SDS011;8435;52.184;5.406;2023-06-26T04:11:59;8.38;;;4.88;;
16642;SDS011;8435;52.184;5.406;2023-06-26T04:14:26;10.48;;;4.55;;
16642;SDS011;8435;52.184;5.406;2023-06-26T04:16:55;8.18;;;4.40;;
16642;SDS011;8435;52.184;5.406;2023-06-26T04:19:22;6.38;;;4.70;;
16642;SDS011;8435;52.184;5.406;2023-06-26T04:21:49;8.95;;;4.88;;
16642;SDS011;8435;52.184;5.406;2023-06-26T04:24:16;7.70;;;4.60;;
16642;SDS011;8435;52.184;5.406;2023-06-26T04:26:43;7.22;;;4.20;;
16642;SDS011;8435;52.184;5.406;2023-06-26T04:29:11;8.32;;;4.47;;
16642;SDS011;8435;52.184;5.406;2023-06-26T04:31:38;6.63;;;4.30;;
16642;SDS011;8435;52.184;5.406;2023-06-26T04:34:06;8.10;;;4.75;;
16642;SDS011;8435;52.184;5.406;2023-06-26T04:36:33;9.88;;;4.88;;
16642;SDS011;8435;52.184;5.406;2023-06-26T04:39:04;9.18;;;5.15;;
16642;SDS011;8435;52.184;5.406;2023-06-26T04:41:31;6.53;;;4.70;;
16642;SDS011;8435;52.184;5.406;2023-06-26T04:43:58;6.88;;;4.28;;
16642;SDS011;8435;52.184;5.406;2023-06-26T04:46:24;9.00;;;4.97;;
16642;SDS011;8435;52.184;5.406;2023-06-26T04:48:53;10.30;;;4.70;;
16642;SDS011;8435;52.184;5.406;2023-06-26T04:51:21;7.07;;;4.63;;
16642;SDS011;8435;52.184;5.406;2023-06-26T04:53:48;8.15;;;4.93;;
16642;SDS011;8435;52.184;5.406;2023-06-26T04:56:14;9.18;;;5.22;;
16642;SDS011;8435;52.184;5.406;2023-06-26T04:58:41;6.70;;;4.40;;
16642;SDS011;8435;52.184;5.406;2023-06-26T05:01:08;6.93;;;4.03;;
16642;SDS011;8435;52.184;5.406;2023-06-26T05:03:35;6.63;;;3.83;;
16642;SDS011;8435;52.184;5.406;2023-06-26T05:06:02;7.93;;;4.43;;
16642;SDS011;8435;52.184;5.406;2023-06-26T05:08:30;6.97;;;4.05;;
16642;SDS011;8435;52.184;5.406;2023-06-26T05:10:57;5.50;;;4.30;;
16642;SDS011;8435;52.184;5.406;2023-06-26T05:13:24;6.32;;;4.07;;
16642;SDS011;8435;52.184;5.406;2023-06-26T05:15:51;6.28;;;4.05;;
16642;SDS011;8435;52.184;5.406;2023-06-26T05:18:18;5.80;;;3.55;;
16642;SDS011;8435;52.184;5.406;2023-06-26T05:20:46;6.15;;;4.10;;
16642;SDS011;8435;52.184;5.406;2023-06-26T05:23:13;4.50;;;3.50;;
16642;SDS011;8435;52.184;5.406;2023-06-26T05:25:44;4.10;;;3.28;;
16642;SDS011;8435;52.184;5.406;2023-06-26T05:28:11;6.57;;;3.38;;
16642;SDS011;8435;52.184;5.406;2023-06-26T05:30:40;4.47;;;3.40;;
16642;SDS011;8435;52.184;5.406;2023-06-26T05:33:08;3.60;;;3.22;;
16642;SDS011;8435;52.184;5.406;2023-06-26T05:35:38;7.07;;;3.22;;
16642;SDS011;8435;52.184;5.406;2023-06-26T05:38:05;4.20;;;3.28;;
16642;SDS011;8435;52.184;5.406;2023-06-26T05:40:33;3.58;;;3.28;;
16642;SDS011;8435;52.184;5.406;2023-06-26T05:43:02;4.03;;;3.00;;
16642;SDS011;8435;52.184;5.406;2023-06-26T05:45:29;5.70;;;3.45;;
16642;SDS011;8435;52.184;5.406;2023-06-26T05:47:56;4.30;;;2.92;;
16642;SDS011;8435;52.184;5.406;2023-06-26T05:50:23;3.17;;;2.78;;
16642;SDS011;8435;52.184;5.406;2023-06-26T05:52:51;3.97;;;3.00;;
16642;SDS011;8435;52.184;5.406;2023-06-26T05:55:18;4.55;;;3.38;;
16642;SDS011;8435;52.184;5.406;2023-06-26T05:57:46;2.80;;;2.50;;
16642;SDS011;8435;52.184;5.406;2023-06-26T06:00:15;4.80;;;2.55;;
16642;SDS011;8435;52.184;5.406;2023-06-26T06:02:42;2.97;;;2.60;;
16642;SDS011;8435;52.184;5.406;2023-06-26T06:05:10;4.18;;;2.95;;
16642;SDS011;8435;52.184;5.406;2023-06-26T06:07:37;3.78;;;2.67;;
16642;SDS011;8435;52.184;5.406;2023-06-26T06:10:04;4.38;;;2.70;;
16642;SDS011;8435;52.184;5.406;2023-06-26T06:12:31;3.83;;;2.53;;
16642;SDS011;8435;52.184;5.406;2023-06-26T06:14:58;2.80;;;2.10;;
16642;SDS011;8435;52.184;5.406;2023-06-26T06:17:26;2.70;;;2.45;;
16642;SDS011;8435;52.184;5.406;2023-06-26T06:19:53;3.17;;;2.53;;
16642;SDS011;8435;52.184;5.406;2023-06-26T06:22:20;3.17;;;2.45;;
16642;SDS011;8435;52.184;5.406;2023-06-26T06:24:48;2.65;;;2.35;;
16642;SDS011;8435;52.184;5.406;2023-06-26T06:27:16;3.78;;;2.55;;
16642;SDS011;8435;52.184;5.406;2023-06-26T06:29:43;2.60;;;2.35;;
16642;SDS011;8435;52.184;5.406;2023-06-26T06:32:10;3.63;;;2.60;;
16642;SDS011;8435;52.184;5.406;2023-06-26T06:34:38;2.35;;;2.15;;
16642;SDS011;8435;52.184;5.406;2023-06-26T06:37:05;2.40;;;2.20;;
16642;SDS011;8435;52.184;5.406;2023-06-26T06:39:32;2.90;;;2.40;;
16642;SDS011;8435;52.184;5.406;2023-06-26T06:41:59;3.30;;;2.70;;
16642;SDS011;8435;52.184;5.406;2023-06-26T06:44:26;2.47;;;2.28;;
16642;SDS011;8435;52.184;5.406;2023-06-26T06:46:53;3.28;;;2.22;;
16642;SDS011;8435;52.184;5.406;2023-06-26T06:49:19;2.78;;;2.13;;
16642;SDS011;8435;52.184;5.406;2023-06-26T06:51:48;2.60;;;2.40;;
16642;SDS011;8435;52.184;5.406;2023-06-26T06:54:15;3.55;;;2.03;;
16642;SDS011;8435;52.184;5.406;2023-06-26T06:56:42;2.60;;;2.38;;
16642;SDS011;8435;52.184;5.406;2023-06-26T06:59:09;2.90;;;2.50;;
16642;SDS011;8435;52.184;5.406;2023-06-26T07:01:36;3.50;;;2.25;;
16642;SDS011;8435;52.184;5.406;2023-06-26T07:04:03;2.92;;;2.40;;
16642;SDS011;8435;52.184;5.406;2023-06-26T07:06:30;3.72;;;2.70;;
16642;SDS011;8435;52.184;5.406;2023-06-26T07:08:58;3.75;;;2.58;;
16642;SDS011;8435;52.184;5.406;2023-06-26T07:11:25;3.28;;;2.42;;
16642;SDS011;8435;52.184;5.406;2023-06-26T07:13:52;2.58;;;2.38;;
16642;SDS011;8435;52.184;5.406;2023-06-26T07:16:19;3.72;;;2.53;;
16642;SDS011;8435;52.184;5.406;2023-06-26T07:18:46;3.67;;;2.60;;
16642;SDS011;8435;52.184;5.406;2023-06-26T07:21:14;2.90;;;2.25;;
16642;SDS011;8435;52.184;5.406;2023-06-26T07:23:41;2.80;;;2.30;;
16642;SDS011;8435;52.184;5.406;2023-06-26T07:26:09;3.28;;;2.50;;
16642;SDS011;8435;52.184;5.406;2023-06-26T07:28:36;2.63;;;2.42;;
16642;SDS011;8435;52.184;5.406;2023-06-26T07:31:03;2.88;;;2.58;;
16642;SDS011;8435;52.184;5.406;2023-06-26T07:33:29;3.85;;;2.47;;
16642;SDS011;8435;52.184;5.406;2023-06-26T07:35:56;2.83;;;2.45;;
16642;SDS011;8435;52.184;5.406;2023-06-26T07:38:23;2.60;;;2.40;;
16642;SDS011;8435;52.184;5.406;2023-06-26T07:40:50;3.53;;;2.90;;
16642;SDS011;8435;52.184;5.406;2023-06-26T07:43:18;3.83;;;2.63;;
16642;SDS011;8435;52.184;5.406;2023-06-26T07:45:45;2.80;;;2.45;;
16642;SDS011;8435;52.184;5.406;2023-06-26T07:48:12;2.65;;;2.45;;
16642;SDS011;8435;52.184;5.406;2023-06-26T07:50:38;6.00;;;2.78;;
16642;SDS011;8435;52.184;5.406;2023-06-26T07:53:05;3.08;;;2.60;;
16642;SDS011;8435;52.184;5.406;2023-06-26T07:55:38;3.05;;;2.53;;
16642;SDS011;8435;52.184;5.406;2023-06-26T07:58:05;4.43;;;2.80;;
16642;SDS011;8435;52.184;5.406;2023-06-26T08:00:34;4.13;;;2.80;;
16642;SDS011;8435;52.184;5.406;2023-06-26T08:03:01;2.90;;;2.65;;
16642;SDS011;8435;52.184;5.406;2023-06-26T08:05:28;2.72;;;2.53;;
16642;SDS011;8435;52.184;5.406;2023-06-26T08:07:55;2.70;;;2.50;;
16642;SDS011;8435;52.184;5.406;2023-06-26T08:10:21;3.15;;;2.83;;
16642;SDS011;8435;52.184;5.406;2023-06-26T08:12:48;3.17;;;2.88;;
16642;SDS011;8435;52.184;5.406;2023-06-26T08:15:17;4.50;;;2.50;;
16642;SDS011;8435;52.184;5.406;2023-06-26T08:17:45;3.10;;;2.80;;
16642;SDS011;8435;52.184;5.406;2023-06-26T08:20:15;3.83;;;2.70;;
16642;SDS011;8435;52.184;5.406;2023-06-26T08:22:44;4.05;;;1.95;;
16642;SDS011;8435;52.184;5.406;2023-06-26T08:25:13;4.13;;;2.08;;
16642;SDS011;8435;52.184;5.406;2023-06-26T08:27:40;3.08;;;2.47;;
16642;SDS011;8435;52.184;5.406;2023-06-26T08:30:07;5.45;;;2.50;;
16642;SDS011;8435;52.184;5.406;2023-06-26T08:32:34;2.55;;;2.28;;
16642;SDS011;8435;52.184;5.406;2023-06-26T08:35:04;2.83;;;2.22;;
16642;SDS011;8435;52.184;5.406;2023-06-26T08:37:32;2.47;;;1.92;;
16642;SDS011;8435;52.184;5.406;2023-06-26T08:39:59;3.97;;;2.17;;
16642;SDS011;8435;52.184;5.406;2023-06-26T08:42:26;4.38;;;1.65;;
16642;SDS011;8435;52.184;5.406;2023-06-26T08:44:53;3.78;;;2.00;;
16642;SDS011;8435;52.184;5.406;2023-06-26T08:47:20;4.32;;;2.00;;
16642;SDS011;8435;52.184;5.406;2023-06-26T08:49:50;2.95;;;1.85;;
16642;SDS011;8435;52.184;5.406;2023-06-26T08:52:23;3.30;;;1.70;;
16642;SDS011;8435;52.184;5.406;2023-06-26T08:54:54;1.98;;;1.30;;
16642;SDS011;8435;52.184;5.406;2023-06-26T08:57:25;3.20;;;1.48;;
16642;SDS011;8435;52.184;5.406;2023-06-26T08:59:52;5.15;;;1.88;;
16642;SDS011;8435;52.184;5.406;2023-06-26T09:02:20;2.35;;;1.30;;
16642;SDS011;8435;52.184;5.406;2023-06-26T09:04:47;4.68;;;2.05;;
16642;SDS011;8435;52.184;5.406;2023-06-26T09:07:15;2.88;;;1.70;;
16642;SDS011;8435;52.184;5.406;2023-06-26T09:09:43;2.75;;;1.60;;
16642;SDS011;8435;52.184;5.406;2023-06-26T09:12:10;3.75;;;1.75;;
16642;SDS011;8435;52.184;5.406;2023-06-26T09:14:37;2.83;;;1.70;;
16642;SDS011;8435;52.184;5.406;2023-06-26T09:17:04;3.35;;;1.40;;
16642;SDS011;8435;52.184;5.406;2023-06-26T09:19:31;1.50;;;1.40;;
16642;SDS011;8435;52.184;5.406;2023-06-26T09:21:58;5.72;;;1.67;;
16642;SDS011;8435;52.184;5.406;2023-06-26T09:24:25;1.63;;;1.52;;
16642;SDS011;8435;52.184;5.406;2023-06-26T09:26:54;2.10;;;1.63;;
16642;SDS011;8435;52.184;5.406;2023-06-26T09:29:20;1.88;;;1.30;;
16642;SDS011;8435;52.184;5.406;2023-06-26T09:31:48;1.67;;;1.50;;
16642;SDS011;8435;52.184;5.406;2023-06-26T09:34:17;2.22;;;1.88;;
16642;SDS011;8435;52.184;5.406;2023-06-26T09:36:45;2.33;;;1.63;;
16642;SDS011;8435;52.184;5.406;2023-06-26T09:39:14;3.90;;;1.80;;
16642;SDS011;8435;52.184;5.406;2023-06-26T09:41:41;2.53;;;1.92;;
16642;SDS011;8435;52.184;5.406;2023-06-26T09:44:12;2.60;;;1.50;;
16642;SDS011;8435;52.184;5.406;2023-06-26T09:46:40;2.28;;;1.60;;
16642;SDS011;8435;52.184;5.406;2023-06-26T09:49:07;1.70;;;1.60;;
16642;SDS011;8435;52.184;5.406;2023-06-26T09:51:37;1.92;;;1.50;;
16642;SDS011;8435;52.184;5.406;2023-06-26T09:54:05;2.72;;;1.70;;
16642;SDS011;8435;52.184;5.406;2023-06-26T09:56:33;2.90;;;1.73;;
16642;SDS011;8435;52.184;5.406;2023-06-26T09:59:00;2.42;;;1.83;;
16642;SDS011;8435;52.184;5.406;2023-06-26T10:01:31;1.77;;;1.60;;
16642;SDS011;8435;52.184;5.406;2023-06-26T10:03:58;2.15;;;1.73;;
16642;SDS011;8435;52.184;5.406;2023-06-26T10:06:27;2.28;;;1.35;;
16642;SDS011;8435;52.184;5.406;2023-06-26T10:08:58;2.03;;;1.23;;
16642;SDS011;8435;52.184;5.406;2023-06-26T10:11:37;1.25;;;1.15;;
16642;SDS011;8435;52.184;5.406;2023-06-26T10:14:07;1.77;;;1.20;;
16642;SDS011;8435;52.184;5.406;2023-06-26T10:16:36;1.63;;;1.40;;
16642;SDS011;8435;52.184;5.406;2023-06-26T10:19:06;1.60;;;1.50;;
16642;SDS011;8435;52.184;5.406;2023-06-26T10:21:35;1.27;;;1.17;;
16642;SDS011;8435;52.184;5.406;2023-06-26T10:24:05;1.77;;;1.17;;
16642;SDS011;8435;52.184;5.406;2023-06-26T10:26:34;2.10;;;1.50;;
16642;SDS011;8435;52.184;5.406;2023-06-26T10:29:04;2.30;;;1.40;;
16642;SDS011;8435;52.184;5.406;2023-06-26T10:31:32;2.83;;;1.35;;
16642;SDS011;8435;52.184;5.406;2023-06-26T10:34:02;1.65;;;1.17;;
16642;SDS011;8435;52.184;5.406;2023-06-26T10:36:30;1.55;;;1.20;;
16642;SDS011;8435;52.184;5.406;2023-06-26T10:38:57;2.65;;;1.48;;
16642;SDS011;8435;52.184;5.406;2023-06-26T10:41:30;1.98;;;1.20;;
16642;SDS011;8435;52.184;5.406;2023-06-26T10:44:07;2.03;;;1.33;;
16642;SDS011;8435;52.184;5.406;2023-06-26T10:46:47;1.70;;;1.08;;
16642;SDS011;8435;52.184;5.406;2023-06-26T10:49:19;2.08;;;1.10;;
16642;SDS011;8435;52.184;5.406;2023-06-26T10:51:47;1.80;;;1.08;;
16642;SDS011;8435;52.184;5.406;2023-06-26T10:54:15;5.95;;;1.20;;
16642;SDS011;8435;52.184;5.406;2023-06-26T10:56:47;1.88;;;1.00;;
16642;SDS011;8435;52.184;5.406;2023-06-26T10:59:15;1.27;;;1.10;;
16642;SDS011;8435;52.184;5.406;2023-06-26T11:01:45;1.10;;;1.10;;
16642;SDS011;8435;52.184;5.406;2023-06-26T11:04:13;1.30;;;1.10;;
16642;SDS011;8435;52.184;5.406;2023-06-26T11:06:51;2.08;;;1.20;;
16642;SDS011;8435;52.184;5.406;2023-06-26T11:09:53;1.75;;;1.10;;
16642;SDS011;8435;52.184;5.406;2023-06-26T11:15:03;1.35;;;1.25;;
16642;SDS011;8435;52.184;5.406;2023-06-26T11:17:34;3.47;;;1.40;;
16642;SDS011;8435;52.184;5.406;2023-06-26T11:20:02;1.77;;;1.20;;
16642;SDS011;8435;52.184;5.406;2023-06-26T11:22:32;3.90;;;1.67;;
16642;SDS011;8435;52.184;5.406;2023-06-26T11:25:01;1.75;;;1.58;;
16642;SDS011;8435;52.184;5.406;2023-06-26T11:27:32;2.45;;;1.48;;
16642;SDS011;8435;52.184;5.406;2023-06-26T11:30:04;1.48;;;1.27;;
16642;SDS011;8435;52.184;5.406;2023-06-26T11:32:32;2.38;;;1.52;;
16642;SDS011;8435;52.184;5.406;2023-06-26T11:34:59;3.28;;;1.30;;
16642;SDS011;8435;52.184;5.406;2023-06-26T11:37:26;1.50;;;1.10;;
16642;SDS011;8435;52.184;5.406;2023-06-26T11:39:54;1.20;;;1.05;;
16642;SDS011;8435;52.184;5.406;2023-06-26T11:42:21;1.45;;;1.23;;
16642;SDS011;8435;52.184;5.406;2023-06-26T11:44:49;3.60;;;1.58;;
16642;SDS011;8435;52.184;5.406;2023-06-26T11:47:17;1.73;;;1.10;;
16642;SDS011;8435;52.184;5.406;2023-06-26T11:49:46;1.38;;;1.00;;
16642;SDS011;8435;52.184;5.406;2023-06-26T11:52:13;1.70;;;1.10;;
16642;SDS011;8435;52.184;5.406;2023-06-26T11:54:41;2.85;;;0.90;;
16642;SDS011;8435;52.184;5.406;2023-06-26T11:57:13;1.83;;;1.17;;
16642;SDS011;8435;52.184;5.406;2023-06-26T11:59:40;0.93;;;0.82;;
16642;SDS011;8435;52.184;5.406;2023-06-26T12:02:11;1.20;;;0.90;;
16642;SDS011;8435;52.184;5.406;2023-06-26T12:04:40;0.98;;;0.90;;
16642;SDS011;8435;52.184;5.406;2023-06-26T12:07:08;0.90;;;0.90;;
16642;SDS011;8435;52.184;5.406;2023-06-26T12:09:39;2.33;;;1.10;;
16642;SDS011;8435;52.184;5.406;2023-06-26T12:12:10;1.70;;;1.10;;
16642;SDS011;8435;52.184;5.406;2023-06-26T12:14:41;1.65;;;1.27;;
16642;SDS011;8435;52.184;5.406;2023-06-26T12:17:09;1.33;;;0.90;;
16642;SDS011;8435;52.184;5.406;2023-06-26T12:19:38;2.17;;;1.40;;
16642;SDS011;8435;52.184;5.406;2023-06-26T12:22:06;1.08;;;0.90;;
16642;SDS011;8435;52.184;5.406;2023-06-26T12:24:34;1.38;;;1.10;;
16642;SDS011;8435;52.184;5.406;2023-06-26T12:27:07;1.50;;;1.08;;
16642;SDS011;8435;52.184;5.406;2023-06-26T12:29:36;0.90;;;0.90;;
16642;SDS011;8435;52.184;5.406;2023-06-26T12:32:04;2.42;;;1.08;;
16642;SDS011;8435;52.184;5.406;2023-06-26T12:34:36;0.93;;;0.90;;
16642;SDS011;8435;52.184;5.406;2023-06-26T12:37:05;1.25;;;1.15;;
16642;SDS011;8435;52.184;5.406;2023-06-26T12:39:45;1.98;;;1.17;;
16642;SDS011;8435;52.184;5.406;2023-06-26T12:42:13;2.00;;;1.23;;
16642;SDS011;8435;52.184;5.406;2023-06-26T12:44:42;1.90;;;1.23;;
16642;SDS011;8435;52.184;5.406;2023-06-26T12:47:09;3.60;;;1.30;;
16642;SDS011;8435;52.184;5.406;2023-06-26T12:49:39;1.40;;;1.25;;
16642;SDS011;8435;52.184;5.406;2023-06-26T12:52:07;1.67;;;1.10;;
16642;SDS011;8435;52.184;5.406;2023-06-26T12:54:36;1.35;;;1.30;;
16642;SDS011;8435;52.184;5.406;2023-06-26T12:57:04;3.35;;;2.50;;
16642;SDS011;8435;52.184;5.406;2023-06-26T12:59:32;4.90;;;3.30;;
16642;SDS011;8435;52.184;5.406;2023-06-26T13:02:00;2.50;;;1.83;;
16642;SDS011;8435;52.184;5.406;2023-06-26T13:04:31;1.50;;;1.35;;
16642;SDS011;8435;52.184;5.406;2023-06-26T13:06:58;2.47;;;1.13;;
16642;SDS011;8435;52.184;5.406;2023-06-26T13:09:25;2.13;;;1.45;;
16642;SDS011;8435;52.184;5.406;2023-06-26T13:11:53;3.15;;;1.30;;
16642;SDS011;8435;52.184;5.406;2023-06-26T13:14:20;3.03;;;1.10;;
16642;SDS011;8435;52.184;5.406;2023-06-26T13:16:47;3.75;;;1.58;;
16642;SDS011;8435;52.184;5.406;2023-06-26T13:19:15;1.58;;;1.20;;
16642;SDS011;8435;52.184;5.406;2023-06-26T13:21:42;1.20;;;1.10;;
16642;SDS011;8435;52.184;5.406;2023-06-26T13:24:09;1.08;;;0.98;;
16642;SDS011;8435;52.184;5.406;2023-06-26T13:26:36;1.58;;;1.00;;
16642;SDS011;8435;52.184;5.406;2023-06-26T13:29:03;2.67;;;0.95;;
16642;SDS011;8435;52.184;5.406;2023-06-26T13:31:30;2.33;;;1.70;;
16642;SDS011;8435;52.184;5.406;2023-06-26T13:33:57;1.73;;;1.42;;
16642;SDS011;8435;52.184;5.406;2023-06-26T13:36:26;1.85;;;1.40;;
16642;SDS011;8435;52.184;5.406;2023-06-26T13:38:53;2.25;;;1.15;;
16642;SDS011;8435;52.184;5.406;2023-06-26T13:41:21;1.58;;;1.10;;
16642;SDS011;8435;52.184;5.406;2023-06-26T13:43:48;1.30;;;1.10;;
16642;SDS011;8435;52.184;5.406;2023-06-26T13:46:15;3.13;;;1.38;;
16642;SDS011;8435;52.184;5.406;2023-06-26T13:48:43;2.30;;;1.10;;
16642;SDS011;8435;52.184;5.406;2023-06-26T13:51:10;1.25;;;1.00;;
16642;SDS011;8435;52.184;5.406;2023-06-26T13:53:38;1.35;;;1.00;;
16642;SDS011;8435;52.184;5.406;2023-06-26T13:56:05;1.50;;;1.10;;
16642;SDS011;8435;52.184;5.406;2023-06-26T13:58:34;2.38;;;1.42;;
16642;SDS011;8435;52.184;5.406;2023-06-26T14:01:04;1.10;;;1.00;;
16642;SDS011;8435;52.184;5.406;2023-06-26T14:03:31;1.55;;;1.30;;
16642;SDS011;8435;52.184;5.406;2023-06-26T14:06:00;1.02;;;0.85;;
16642;SDS011;8435;52.184;5.406;2023-06-26T14:08:27;1.63;;;1.08;;
16642;SDS011;8435;52.184;5.406;2023-06-26T14:10:55;1.85;;;1.13;;
16642;SDS011;8435;52.184;5.406;2023-06-26T14:13:26;1.23;;;1.00;;
16642;SDS011;8435;52.184;5.406;2023-06-26T14:15:52;1.33;;;0.90;;
16642;SDS011;8435;52.184;5.406;2023-06-26T14:18:21;1.33;;;1.15;;
16642;SDS011;8435;52.184;5.406;2023-06-26T14:20:48;1.00;;;0.85;;
16642;SDS011;8435;52.184;5.406;2023-06-26T14:23:15;2.30;;;1.05;;
16642;SDS011;8435;52.184;5.406;2023-06-26T14:25:42;1.10;;;1.00;;
16642;SDS011;8435;52.184;5.406;2023-06-26T14:28:10;1.30;;;0.98;;
16642;SDS011;8435;52.184;5.406;2023-06-26T14:30:38;1.17;;;1.05;;
16642;SDS011;8435;52.184;5.406;2023-06-26T14:33:04;2.80;;;0.90;;
16642;SDS011;8435;52.184;5.406;2023-06-26T14:35:31;1.23;;;0.90;;
16642;SDS011;8435;52.184;5.406;2023-06-26T14:37:58;3.08;;;1.80;;
16642;SDS011;8435;52.184;5.406;2023-06-26T14:40:25;1.23;;;1.00;;
16642;SDS011;8435;52.184;5.406;2023-06-26T14:42:52;3.08;;;1.42;;
16642;SDS011;8435;52.184;5.406;2023-06-26T14:45:21;2.10;;;1.30;;
16642;SDS011;8435;52.184;5.406;2023-06-26T14:47:48;1.67;;;1.10;;
16642;SDS011;8435;52.184;5.406;2023-06-26T14:50:15;1.50;;;1.23;;
16642;SDS011;8435;52.184;5.406;2023-06-26T14:52:43;1.02;;;1.00;;
16642;SDS011;8435;52.184;5.406;2023-06-26T14:55:10;1.75;;;1.25;;
16642;SDS011;8435;52.184;5.406;2023-06-26T14:57:37;1.85;;;1.13;;
16642;SDS011;8435;52.184;5.406;2023-06-26T15:00:04;1.60;;;1.08;;
16642;SDS011;8435;52.184;5.406;2023-06-26T15:02:34;1.45;;;1.20;;
16642;SDS011;8435;52.184;5.406;2023-06-26T15:05:00;3.00;;;1.27;;
16642;SDS011;8435;52.184;5.406;2023-06-26T15:07:27;1.30;;;1.20;;
16642;SDS011;8435;52.184;5.406;2023-06-26T15:09:55;2.15;;;1.25;;